Fairmont City, Illinois
Current Conditions -  °F | °C
As of 6:53 AM on Thursday 27 Nov 2014 (Local Time) from KCPS Reporting Station
Overcast Overcast  
Wind Chill: 19°   Ceiling: 1700
Heat Index: 30°   Visibility: 8mi
Dew Point: 24°   Wind: 15mph
Humidity: 79%   Direction: 330°NNW
Pressure: 30.43"   Gusts: NA
Location:  38.6386°N, 90.1321°W
Report Text: KCPS 271253Z 33013KT 8SM OVC017 M01/M04 A3043 RMK AO2 SLP309 T10111044
Loading
Personal Weather Stations






























Interactive Weather Map New forecast layout! Learn more

10-Day Weather Forecast

Advertisements
Track Severe Weather on mobile